TimeCST,TemperatureF,Dew PointF,Humidity,Sea Level PressureIn,VisibilityMPH,Wind Direction,Wind SpeedMPH,Gust SpeedMPH,PrecipitationIn,Events,Conditions,WindDirDegrees,DateUTC
12:53 AM,45.0,32.0,60,30.23,10.0,ENE,9.2,-,N/A,,Clear,60,2013-02-20 06:53:00
1:53 AM,46.0,30.9,56,30.22,10.0,ENE,9.2,-,N/A,,Clear,60,2013-02-20 07:53:00
2:53 AM,45.0,30.0,56,30.18,10.0,ENE,11.5,-,N/A,,Clear,60,2013-02-20 08:53:00
3:53 AM,45.0,27.0,49,30.18,10.0,ENE,6.9,-,N/A,,Clear,70,2013-02-20 09:53:00
4:53 AM,44.1,25.0,47,30.20,10.0,ENE,6.9,-,N/A,,Clear,60,2013-02-20 10:53:00
5:53 AM,42.8,26.6,53,30.23,10.0,ENE,4.6,-,N/A,,Clear,70,2013-02-20 11:53:00
6:53 AM,39.0,28.9,67,30.23,10.0,ENE,5.8,-,N/A,,Clear,70,2013-02-20 12:53:00
7:53 AM,44.1,30.0,58,30.25,10.0,ENE,8.1,-,N/A,,Clear,70,2013-02-20 13:53:00
8:53 AM,48.0,27.0,44,30.25,10.0,East,12.7,-,N/A,,Mostly Cloudy,90,2013-02-20 14:53:00
9:53 AM,50.0,26.6,40,30.24,10.0,ENE,15.0,-,N/A,,Clear,70,2013-02-20 15:53:00
10:53 AM,53.1,26.1,35,30.20,10.0,ENE,18.4,-,N/A,,Clear,70,2013-02-20 16:53:00
11:53 AM,55.9,27.0,33,30.17,10.0,East,12.7,17.3,N/A,,Clear,100,2013-02-20 17:53:00
12:53 PM,57.0,27.0,32,30.14,10.0,East,10.4,-,N/A,,Clear,90,2013-02-20 18:53:00
1:53 PM,59.0,27.0,29,30.11,10.0,ENE,8.1,-,N/A,,Clear,70,2013-02-20 19:53:00
2:53 PM,59.0,26.1,28,30.11,10.0,ENE,6.9,-,N/A,,Mostly Cloudy,70,2013-02-20 20:53:00
3:53 PM,59.0,26.1,28,30.11,10.0,East,4.6,-,N/A,,Partly Cloudy,80,2013-02-20 21:53:00
4:53 PM,57.9,28.0,32,30.10,10.0,East,6.9,-,N/A,,Clear,100,2013-02-20 22:53:00
5:53 PM,55.0,30.0,38,30.07,10.0,ESE,11.5,-,N/A,,Clear,120,2013-02-20 23:53:00
6:53 PM,51.1,35.1,54,30.05,10.0,ESE,11.5,-,N/A,,Clear,110,2013-02-21 00:53:00
7:53 PM,48.9,36.0,61,30.06,10.0,East,8.1,-,N/A,,Clear,80,2013-02-21 01:53:00
8:19 PM,50.0,35.6,58,30.06,10.0,ESE,8.1,-,N/A,,Mostly Cloudy,110,2013-02-21 02:19:00
8:45 PM,50.0,35.6,58,30.05,10.0,ESE,8.1,-,N/A,,Scattered Clouds,110,2013-02-21 02:45:00
8:53 PM,50.0,35.6,58,30.05,10.0,ESE,9.2,-,N/A,,Partly Cloudy,110,2013-02-21 02:53:00
9:53 PM,51.1,37.9,61,30.04,10.0,East,9.2,-,N/A,,Partly Cloudy,90,2013-02-21 03:53:00
10:00 PM,51.8,37.4,58,30.04,10.0,East,11.5,-,N/A,,Overcast,100,2013-02-21 04:00:00
10:53 PM,52.0,37.9,59,30.03,10.0,East,12.7,-,N/A,,Overcast,90,2013-02-21 04:53:00
11:53 PM,51.1,37.9,61,30.01,10.0,East,9.2,-,N/A,,Overcast,100,2013-02-21 05:53:00